Glade Spring, Virginia
Current Conditions -  °F | °C
As of 10:35 AM on Saturday 25 Oct 2014 (Local Time) from KVJI Reporting Station
Clear Clear  
Wind Chill: 54°   Ceiling: Unl
Heat Index: 54°   Visibility: 10mi
Dew Point: 45°   Wind: 6mph
Humidity: 73%   Direction: 240°WSW
Pressure: 30.11"   Gusts: NA
Location:  36.79°N, 81.77°W
Report Text: KVJI 251435Z AUTO 24005KT 10SM CLR 12/07 A3011 RMK AO2 T01210073
Loading
Personal Weather Stations






























Interactive Weather Map New forecast layout! Learn more

10-Day Weather Forecast

Advertisements
Track Severe Weather on mobile